Westport, Pennsylvania
Current Conditions -  °F | °C
As of 3:15 AM on Tuesday 21 Oct 2014 (Local Time) from KUNV Reporting Station
Overcast Overcast  
Wind Chill: 48°   Ceiling: 4000
Heat Index: 48°   Visibility: 10mi
Dew Point: 43°   Wind: 0mph
Humidity: 82%   Direction: NA
Pressure: 29.85"   Gusts: NA
Location:  41.3°N, 77.84°W
Report Text: KUNV 210715Z AUTO 00000KT 10SM SCT030 BKN040 OVC046 09/06 A2985 RMK AO2 T00900061
Loading
Personal Weather Stations






























Interactive Weather Map
Tropical Storm Tracking
New forecast layout! Learn more

10-Day Weather Forecast

Advertisements
Track Severe Weather on mobile